createdAt,value
2017-08-14T00:00:33.053Z,8.87
2017-08-14T00:02:59.687Z,7.70
2017-08-14T00:05:26.302Z,8.30
2017-08-14T00:07:52.944Z,8.30
2017-08-14T00:10:19.541Z,8.33
2017-08-14T00:12:46.140Z,8.60
2017-08-14T00:15:12.739Z,9.07
2017-08-14T00:17:39.345Z,9.13
2017-08-14T00:20:05.969Z,8.30
2017-08-14T00:22:32.560Z,8.90
2017-08-14T00:24:59.221Z,8.80
2017-08-14T00:27:25.811Z,9.20
2017-08-14T00:29:52.448Z,8.70
2017-08-14T00:32:19.033Z,8.50
2017-08-14T00:34:45.627Z,9.37
2017-08-14T00:37:12.267Z,8.90
2017-08-14T00:39:38.860Z,8.87
2017-08-14T00:42:05.488Z,8.70
2017-08-14T00:44:32.071Z,8.13
2017-08-14T00:46:58.679Z,8.60
2017-08-14T00:49:25.302Z,8.70
2017-08-14T00:51:51.896Z,8.60
2017-08-14T00:54:18.563Z,8.33
2017-08-14T00:56:45.157Z,9.00
2017-08-14T00:59:11.745Z,9.13
2017-08-14T01:01:38.343Z,8.70
2017-08-14T01:04:04.952Z,9.40
2017-08-14T01:06:31.579Z,9.00
2017-08-14T01:08:58.182Z,9.50
2017-08-14T01:11:24.792Z,8.30
2017-08-14T01:13:51.395Z,8.47
2017-08-14T01:16:17.994Z,9.40
2017-08-14T01:18:44.597Z,8.83
2017-08-14T01:21:11.180Z,8.57
2017-08-14T01:23:37.776Z,8.50
2017-08-14T01:26:04.419Z,8.50
2017-08-14T01:28:31.069Z,9.07
2017-08-14T01:30:57.764Z,8.93
2017-08-14T01:33:24.366Z,8.33
2017-08-14T01:35:50.979Z,8.07
2017-08-14T01:38:17.580Z,8.73
2017-08-14T01:40:44.225Z,8.43
2017-08-14T01:43:10.833Z,8.87
2017-08-14T01:45:37.415Z,8.77
2017-08-14T01:48:04.074Z,8.60
2017-08-14T01:50:30.775Z,8.77
2017-08-14T01:52:57.435Z,8.13
2017-08-14T01:55:24.039Z,8.90
2017-08-14T01:57:50.637Z,8.60
2017-08-14T02:00:17.220Z,8.10
2017-08-14T02:02:43.823Z,8.47
2017-08-14T02:05:10.428Z,8.27
2017-08-14T02:07:37.042Z,8.30
2017-08-14T02:10:03.636Z,8.00
2017-08-14T02:12:30.233Z,8.40
2017-08-14T02:14:56.864Z,8.50
2017-08-14T02:17:23.458Z,8.17
2017-08-14T02:19:50.060Z,8.03
2017-08-14T02:22:16.689Z,8.63
2017-08-14T02:24:43.283Z,9.10
2017-08-14T02:27:10.060Z,8.13
2017-08-14T02:29:36.660Z,8.93
2017-08-14T02:32:03.280Z,8.77
2017-08-14T02:34:29.943Z,8.50
2017-08-14T02:36:56.588Z,8.70
2017-08-14T02:39:23.234Z,8.40
2017-08-14T02:41:49.816Z,8.60
2017-08-14T02:44:16.408Z,8.00
2017-08-14T02:46:43.011Z,8.23
2017-08-14T02:49:09.607Z,7.70
2017-08-14T02:51:36.228Z,8.83
2017-08-14T02:54:02.824Z,8.07
2017-08-14T02:56:29.455Z,7.90
2017-08-14T02:58:56.057Z,7.80
2017-08-14T03:01:22.656Z,8.10
2017-08-14T03:03:49.268Z,8.10
2017-08-14T03:06:15.863Z,8.20
2017-08-14T03:08:42.455Z,9.07
2017-08-14T03:11:09.056Z,8.07
2017-08-14T03:13:35.662Z,8.90
2017-08-14T03:16:02.520Z,8.60
2017-08-14T03:18:29.143Z,8.60
2017-08-14T03:20:55.780Z,8.27
2017-08-14T03:23:22.386Z,8.23
2017-08-14T03:25:48.980Z,8.27
2017-08-14T03:28:15.595Z,8.37
2017-08-14T03:30:42.180Z,8.23
2017-08-14T03:33:08.768Z,7.67
2017-08-14T03:35:35.384Z,8.07
2017-08-14T03:38:02.110Z,8.80
2017-08-14T03:40:28.743Z,8.67
2017-08-14T03:42:55.333Z,8.60
2017-08-14T03:45:21.925Z,8.47
2017-08-14T03:47:48.524Z,8.17
2017-08-14T03:50:15.111Z,8.17
2017-08-14T03:52:41.760Z,8.53
2017-08-14T03:55:08.367Z,8.80
2017-08-14T03:57:34.976Z,8.73
2017-08-14T04:00:01.588Z,8.50
2017-08-14T04:02:28.187Z,8.87
2017-08-14T04:04:54.783Z,7.63
2017-08-14T04:07:21.372Z,7.97
2017-08-14T04:09:47.991Z,7.60
2017-08-14T04:12:14.587Z,7.80
2017-08-14T04:14:41.327Z,8.03
2017-08-14T04:17:07.931Z,8.60
2017-08-14T04:19:34.537Z,8.97
2017-08-14T04:22:01.184Z,8.30
2017-08-14T04:24:27.788Z,8.07
2017-08-14T04:26:54.389Z,8.87
2017-08-14T04:29:20.997Z,9.03
2017-08-14T04:31:47.747Z,8.37
2017-08-14T04:34:14.339Z,8.90
2017-08-14T04:36:40.935Z,8.33
2017-08-14T04:39:07.556Z,9.10
2017-08-14T04:41:34.156Z,9.30
2017-08-14T04:44:00.779Z,9.07
2017-08-14T04:46:27.380Z,8.50
2017-08-14T04:48:53.974Z,9.57
2017-08-14T04:51:20.579Z,9.83
2017-08-14T04:53:47.178Z,9.37
2017-08-14T04:56:13.764Z,10.00
2017-08-14T05:01:24.425Z,9.10
2017-08-14T05:03:51.005Z,9.63
2017-08-14T05:06:17.593Z,9.10
2017-08-14T05:08:44.178Z,9.03
2017-08-14T05:11:10.753Z,9.40
2017-08-14T05:13:37.431Z,9.50
2017-08-14T05:16:04.003Z,8.90
2017-08-14T05:18:30.581Z,9.10
2017-08-14T05:20:57.172Z,9.27
2017-08-14T05:23:23.750Z,9.27
2017-08-14T05:25:50.341Z,9.23
2017-08-14T05:28:16.924Z,10.17
2017-08-14T05:30:43.506Z,9.10
2017-08-14T05:33:10.080Z,7.73
2017-08-14T05:35:36.673Z,8.90
2017-08-14T05:38:03.252Z,9.00
2017-08-14T05:40:29.828Z,8.90
2017-08-14T05:42:56.421Z,8.80
2017-08-14T05:45:23.003Z,9.17
2017-08-14T05:47:49.582Z,9.20
2017-08-14T05:50:16.184Z,9.33
2017-08-14T05:52:42.769Z,9.90
2017-08-14T05:55:09.362Z,11.03
2017-08-14T05:57:35.964Z,11.30
2017-08-14T06:00:02.671Z,12.50
2017-08-14T06:02:35.545Z,11.70
2017-08-14T06:05:05.205Z,12.17
2017-08-14T06:07:31.833Z,12.83
2017-08-14T06:09:58.664Z,12.87
2017-08-14T06:12:25.245Z,12.10
2017-08-14T06:14:51.844Z,11.10
2017-08-14T06:17:18.431Z,11.30
2017-08-14T06:19:45.014Z,11.10
2017-08-14T06:22:11.601Z,11.00
2017-08-14T06:24:38.186Z,10.63
2017-08-14T06:27:04.797Z,10.00
2017-08-14T06:29:31.384Z,10.57
2017-08-14T06:31:57.985Z,10.53
2017-08-14T06:34:24.575Z,9.70
2017-08-14T06:36:51.158Z,9.97
2017-08-14T06:39:17.758Z,10.00
2017-08-14T06:41:44.337Z,9.93
2017-08-14T06:44:10.904Z,8.77
2017-08-14T06:46:37.517Z,9.57
2017-08-14T06:49:04.095Z,8.67
2017-08-14T06:51:30.685Z,8.30
2017-08-14T06:53:57.260Z,6.80
2017-08-14T06:56:23.877Z,6.40
2017-08-14T06:58:50.459Z,6.13
2017-08-14T07:01:17.040Z,7.30
2017-08-14T07:03:43.682Z,6.10
2017-08-14T07:06:10.242Z,6.00
2017-08-14T07:08:36.818Z,6.70
2017-08-14T07:11:03.410Z,5.60
2017-08-14T07:13:30.022Z,6.10
2017-08-14T07:15:56.619Z,5.40
2017-08-14T07:18:23.197Z,5.43
2017-08-14T07:20:49.816Z,5.60
2017-08-14T07:23:16.393Z,5.73
2017-08-14T07:25:42.994Z,5.90
2017-08-14T07:28:09.572Z,5.30
2017-08-14T07:30:36.149Z,5.17
2017-08-14T07:33:02.717Z,5.47
2017-08-14T07:35:29.323Z,5.43
2017-08-14T07:37:55.880Z,4.90
2017-08-14T07:40:22.469Z,5.37
2017-08-14T07:42:49.042Z,5.20
2017-08-14T07:45:15.621Z,4.83
2017-08-14T07:47:42.201Z,5.50
2017-08-14T07:50:08.777Z,4.70
2017-08-14T07:52:35.376Z,5.13
2017-08-14T07:55:01.984Z,5.23
2017-08-14T07:57:28.693Z,5.80
2017-08-14T07:59:55.365Z,4.57
2017-08-14T08:02:21.949Z,4.43
2017-08-14T08:04:48.537Z,5.40
2017-08-14T08:07:15.129Z,5.30
2017-08-14T08:09:41.716Z,5.33
2017-08-14T08:12:08.294Z,5.10
2017-08-14T08:14:34.989Z,5.40
2017-08-14T08:17:01.573Z,4.80
2017-08-14T08:19:28.148Z,5.00
2017-08-14T08:21:54.821Z,5.50
2017-08-14T08:24:21.385Z,5.17
2017-08-14T08:26:47.998Z,5.10
2017-08-14T08:29:14.691Z,4.77
2017-08-14T08:31:41.299Z,5.00
2017-08-14T08:34:07.874Z,5.10
2017-08-14T08:36:34.588Z,4.87
2017-08-14T08:39:01.392Z,5.60
2017-08-14T08:41:27.972Z,5.80
2017-08-14T08:43:54.613Z,4.97
2017-08-14T08:46:21.212Z,5.30
2017-08-14T08:48:47.789Z,4.70
2017-08-14T08:51:14.361Z,5.20
2017-08-14T08:53:41.047Z,5.10
2017-08-14T08:56:07.668Z,4.90
2017-08-14T08:58:34.430Z,5.37
2017-08-14T09:01:01.009Z,4.93
2017-08-14T09:03:27.581Z,5.20
2017-08-14T09:05:54.173Z,5.30
2017-08-14T09:08:20.778Z,5.20
2017-08-14T09:10:47.353Z,4.60
2017-08-14T09:13:13.933Z,5.37
2017-08-14T09:15:40.515Z,5.67
2017-08-14T09:18:07.122Z,5.00
2017-08-14T09:20:33.709Z,5.50
2017-08-14T09:23:00.305Z,5.47
2017-08-14T09:25:26.916Z,5.10
2017-08-14T09:27:53.492Z,5.00
2017-08-14T09:30:20.093Z,5.20
2017-08-14T09:32:46.649Z,5.13
2017-08-14T09:35:13.233Z,5.30
2017-08-14T09:37:39.809Z,5.17
2017-08-14T09:40:06.454Z,4.90
2017-08-14T09:42:33.102Z,5.30
2017-08-14T09:44:59.717Z,5.00
2017-08-14T09:47:26.293Z,4.63
2017-08-14T09:49:52.882Z,4.87
2017-08-14T09:52:19.804Z,4.30
2017-08-14T09:54:46.393Z,5.00
2017-08-14T09:57:12.977Z,4.13
2017-08-14T09:59:39.576Z,4.33
2017-08-14T10:02:06.195Z,4.63
2017-08-14T10:04:32.879Z,4.30
2017-08-14T10:06:59.528Z,4.07
2017-08-14T10:09:26.125Z,4.20
2017-08-14T10:11:52.712Z,4.30
2017-08-14T10:14:19.301Z,3.50
2017-08-14T10:16:45.910Z,4.00
2017-08-14T10:19:12.520Z,3.80
2017-08-14T10:21:39.085Z,4.10
2017-08-14T10:24:05.667Z,4.30
2017-08-14T10:26:32.550Z,4.40
2017-08-14T10:28:59.167Z,3.70
2017-08-14T10:31:25.775Z,3.77
2017-08-14T10:33:52.350Z,3.70
2017-08-14T10:36:18.979Z,3.57
2017-08-14T10:38:45.648Z,4.47
2017-08-14T10:41:12.210Z,3.70
2017-08-14T10:43:38.796Z,3.70
2017-08-14T10:46:05.436Z,3.53
2017-08-14T10:48:32.637Z,3.43
2017-08-14T10:50:59.222Z,3.60
2017-08-14T10:53:25.836Z,3.70
2017-08-14T10:55:52.459Z,3.60
2017-08-14T10:58:19.028Z,3.47
2017-08-14T11:00:45.634Z,3.37
2017-08-14T11:03:12.216Z,3.30
2017-08-14T11:05:38.795Z,3.70
2017-08-14T11:08:05.449Z,3.60
2017-08-14T11:10:32.342Z,3.47
2017-08-14T11:12:58.957Z,3.40
2017-08-14T11:15:25.601Z,3.30
2017-08-14T11:17:52.196Z,3.63
2017-08-14T11:20:18.780Z,3.00
2017-08-14T11:22:45.593Z,3.30
2017-08-14T11:25:12.152Z,2.90
2017-08-14T11:27:38.752Z,3.00
2017-08-14T11:30:05.341Z,3.00
2017-08-14T11:32:31.997Z,3.00
2017-08-14T11:34:59.554Z,2.70
2017-08-14T11:37:26.190Z,3.00
2017-08-14T11:39:52.781Z,3.00
2017-08-14T11:42:19.384Z,3.00
2017-08-14T11:44:45.965Z,2.93
2017-08-14T11:47:12.547Z,3.10
2017-08-14T11:49:39.122Z,2.87
2017-08-14T11:52:05.747Z,2.67
2017-08-14T11:54:32.351Z,3.00
2017-08-14T11:56:58.958Z,2.70
2017-08-14T11:59:25.529Z,2.60
2017-08-14T12:01:52.128Z,2.57
2017-08-14T12:04:18.714Z,2.60
2017-08-14T12:06:45.288Z,2.53
2017-08-14T12:09:11.885Z,3.40
2017-08-14T12:11:38.488Z,4.70
2017-08-14T12:14:05.086Z,4.20
2017-08-14T12:16:31.748Z,3.87
2017-08-14T12:18:58.371Z,3.40
2017-08-14T12:21:24.969Z,6.20
2017-08-14T12:23:51.548Z,3.03
2017-08-14T12:26:18.121Z,3.23
2017-08-14T12:28:44.733Z,2.70
2017-08-14T12:31:11.313Z,2.60
2017-08-14T12:33:37.934Z,3.10
2017-08-14T12:36:04.505Z,2.70
2017-08-14T12:38:31.265Z,3.07
2017-08-14T12:40:57.860Z,2.10
2017-08-14T12:43:24.425Z,2.43
2017-08-14T12:45:51.588Z,2.53
2017-08-14T12:48:18.262Z,2.77
2017-08-14T12:50:44.833Z,2.50
2017-08-14T12:53:11.422Z,2.80
2017-08-14T12:55:38.017Z,2.57
2017-08-14T12:58:04.596Z,2.77
2017-08-14T13:00:31.229Z,2.50
2017-08-14T13:02:57.806Z,2.50
2017-08-14T13:05:24.440Z,2.50
2017-08-14T13:07:51.010Z,2.57
2017-08-14T13:10:17.600Z,2.50
2017-08-14T13:12:44.174Z,2.70
2017-08-14T13:15:10.776Z,2.50
2017-08-14T13:17:37.413Z,2.37
2017-08-14T13:20:04.010Z,2.80
2017-08-14T13:22:30.595Z,2.50
2017-08-14T13:24:57.295Z,2.60
2017-08-14T13:27:23.881Z,2.37
2017-08-14T13:29:50.470Z,5.17
2017-08-14T13:32:17.086Z,2.93
2017-08-14T13:34:43.783Z,2.93
2017-08-14T13:37:10.417Z,4.37
2017-08-14T13:39:37.060Z,2.70
2017-08-14T13:42:03.784Z,3.20
2017-08-14T13:44:30.506Z,2.60
2017-08-14T13:46:57.182Z,2.60
2017-08-14T13:49:23.775Z,2.87
2017-08-14T13:51:50.406Z,2.97
2017-08-14T13:54:17.087Z,2.50
2017-08-14T13:56:43.686Z,2.93
2017-08-14T13:59:10.324Z,2.80
2017-08-14T14:01:36.974Z,2.87
2017-08-14T14:04:03.572Z,2.70
2017-08-14T14:06:30.230Z,2.70
2017-08-14T14:08:58.946Z,2.87
2017-08-14T14:11:25.585Z,2.90
2017-08-14T14:13:52.163Z,2.50
2017-08-14T14:16:18.745Z,2.73
2017-08-14T14:18:45.329Z,3.20
2017-08-14T14:21:19.556Z,2.80
2017-08-14T14:23:46.157Z,2.90
2017-08-14T14:26:12.736Z,2.73
2017-08-14T14:28:39.394Z,2.97
2017-08-14T14:31:05.973Z,2.60
2017-08-14T14:33:32.654Z,3.13
2017-08-14T14:35:59.286Z,3.20
2017-08-14T14:38:25.857Z,2.63
2017-08-14T14:40:52.442Z,2.87
2017-08-14T14:43:19.042Z,3.20
2017-08-14T14:45:45.745Z,2.77
2017-08-14T14:48:12.382Z,2.70
2017-08-14T14:50:38.949Z,3.20
2017-08-14T14:53:05.782Z,3.53
2017-08-14T14:55:32.489Z,2.90
2017-08-14T14:57:59.117Z,3.20
2017-08-14T15:00:25.853Z,3.07
2017-08-14T15:02:52.439Z,3.20
2017-08-14T15:05:19.090Z,3.03
2017-08-14T15:07:45.671Z,3.20
2017-08-14T15:10:12.268Z,3.17
2017-08-14T15:12:38.842Z,3.40
2017-08-14T15:15:05.628Z,3.57
2017-08-14T15:17:32.242Z,3.20
2017-08-14T15:19:58.890Z,3.30
2017-08-14T15:22:25.489Z,3.40
2017-08-14T15:24:52.076Z,3.40
2017-08-14T15:27:18.707Z,3.10
2017-08-14T15:29:45.295Z,3.20
2017-08-14T15:32:11.892Z,3.00
2017-08-14T15:34:38.501Z,3.30
2017-08-14T15:37:05.094Z,3.33
2017-08-14T15:39:31.745Z,3.50
2017-08-14T15:41:58.336Z,3.30
2017-08-14T15:44:24.954Z,3.10
2017-08-14T15:46:51.597Z,3.10
2017-08-14T15:49:18.184Z,2.97
2017-08-14T15:51:48.106Z,2.90
2017-08-14T15:54:14.672Z,2.60
2017-08-14T15:56:41.253Z,2.93
2017-08-14T15:59:07.867Z,3.07
2017-08-14T16:01:34.482Z,3.20
2017-08-14T16:04:02.094Z,3.50
2017-08-14T16:06:28.706Z,4.77
2017-08-14T16:08:55.297Z,3.80
2017-08-14T16:11:21.981Z,3.00
2017-08-14T16:13:48.627Z,3.30
2017-08-14T16:16:15.193Z,3.40
2017-08-14T16:18:41.877Z,3.33
2017-08-14T16:21:08.515Z,3.70
2017-08-14T16:23:35.176Z,3.77
2017-08-14T16:26:02.236Z,3.60
2017-08-14T16:28:28.874Z,3.23
2017-08-14T16:30:55.521Z,3.40
2017-08-14T16:33:22.150Z,3.47
2017-08-14T16:38:25.297Z,3.20
2017-08-14T16:40:51.924Z,3.40
2017-08-14T16:43:18.497Z,3.37
2017-08-14T16:45:51.364Z,3.27
2017-08-14T16:48:21.111Z,3.27
2017-08-14T16:50:47.685Z,3.30
2017-08-14T16:53:17.220Z,3.27
2017-08-14T16:55:45.184Z,3.57
2017-08-14T16:58:11.776Z,3.73
2017-08-14T17:00:38.378Z,3.70
2017-08-14T17:03:14.965Z,3.40
2017-08-14T17:05:41.572Z,3.90
2017-08-14T17:08:08.241Z,3.60
2017-08-14T17:10:35.772Z,4.03
2017-08-14T17:13:02.836Z,3.57
2017-08-14T17:15:35.603Z,3.60
2017-08-14T17:18:03.098Z,4.07
2017-08-14T17:20:29.682Z,3.43
2017-08-14T17:22:56.314Z,3.50
2017-08-14T17:25:22.902Z,3.90
2017-08-14T17:27:49.494Z,3.67
2017-08-14T17:30:16.067Z,3.87
2017-08-14T17:32:44.954Z,4.20
2017-08-14T17:37:55.364Z,4.00
2017-08-14T17:40:21.989Z,3.63
2017-08-14T17:42:48.621Z,4.00
2017-08-14T17:45:15.239Z,3.90
2017-08-14T17:47:41.835Z,3.90
2017-08-14T17:50:08.479Z,3.77
2017-08-14T17:52:35.234Z,4.30
2017-08-14T17:55:01.946Z,4.90
2017-08-14T17:57:28.569Z,4.50
2017-08-14T17:59:55.239Z,4.27
2017-08-14T18:02:21.826Z,4.10
2017-08-14T18:04:48.412Z,3.90
2017-08-14T18:07:21.783Z,4.10
2017-08-14T18:09:51.539Z,4.00
2017-08-14T18:12:18.156Z,4.40
2017-08-14T18:14:44.755Z,4.30
2017-08-14T18:17:11.352Z,5.00
2017-08-14T18:19:37.936Z,4.60
2017-08-14T18:22:04.587Z,4.43
2017-08-14T18:24:31.632Z,4.73
2017-08-14T18:26:58.217Z,4.50
2017-08-14T18:29:24.959Z,4.50
2017-08-14T18:31:51.567Z,4.27
2017-08-14T18:34:18.154Z,3.73
2017-08-14T18:36:44.891Z,3.80
2017-08-14T18:39:11.512Z,4.20
2017-08-14T18:41:38.095Z,4.20
2017-08-14T18:44:04.937Z,4.53
2017-08-14T18:46:31.524Z,5.10
2017-08-14T18:48:58.230Z,4.57
2017-08-14T18:51:24.945Z,5.13
2017-08-14T18:53:51.755Z,5.20
2017-08-14T18:56:18.494Z,5.20
2017-08-14T18:58:51.544Z,4.73
2017-08-14T19:01:18.363Z,5.30
2017-08-14T19:03:45.132Z,5.07
2017-08-14T19:06:19.681Z,5.20
2017-08-14T19:08:47.860Z,4.97
2017-08-14T19:11:13.033Z,4.77
2017-08-14T19:13:39.628Z,5.07
2017-08-14T19:16:06.248Z,4.20
2017-08-14T19:18:38.605Z,4.50
2017-08-14T19:21:11.336Z,4.87
2017-08-14T19:23:38.043Z,4.53
2017-08-14T19:26:10.943Z,4.60
2017-08-14T19:28:37.596Z,4.50
2017-08-14T19:31:04.236Z,4.73
2017-08-14T19:33:31.137Z,4.60
2017-08-14T19:35:57.706Z,4.70
2017-08-14T19:38:29.982Z,5.10
2017-08-14T19:40:57.015Z,4.50
2017-08-14T19:43:23.600Z,5.23
2017-08-14T19:45:50.310Z,4.80
2017-08-14T19:48:17.057Z,5.50
2017-08-14T19:50:49.672Z,5.23
2017-08-14T19:53:16.266Z,5.50
2017-08-14T19:55:42.864Z,4.63
2017-08-14T19:58:09.447Z,5.10
2017-08-14T20:00:46.624Z,4.67
2017-08-14T20:03:13.207Z,5.37
2017-08-14T20:05:39.792Z,5.00
2017-08-14T20:08:06.439Z,5.33
2017-08-14T20:10:41.192Z,5.10
2017-08-14T20:13:08.110Z,4.70
2017-08-14T20:15:34.712Z,4.97
2017-08-14T20:18:01.435Z,4.67
2017-08-14T20:20:34.276Z,5.03
2017-08-14T20:23:00.878Z,4.40
2017-08-14T20:25:27.521Z,5.00
2017-08-14T20:27:54.747Z,5.00
2017-08-14T20:30:25.079Z,4.87
2017-08-14T20:32:51.665Z,5.10
2017-08-14T20:35:18.423Z,4.63
2017-08-14T20:37:45.020Z,4.70
2017-08-14T20:40:11.632Z,4.87
2017-08-14T20:42:38.410Z,5.10
2017-08-14T20:45:05.187Z,5.10
2017-08-14T20:47:32.449Z,5.17
2017-08-14T20:49:59.422Z,5.17
2017-08-14T20:52:26.004Z,4.80
2017-08-14T20:54:52.592Z,4.87
2017-08-14T20:57:19.195Z,5.20
2017-08-14T20:59:45.785Z,4.80
2017-08-14T21:02:12.391Z,4.80
2017-08-14T21:04:39.007Z,4.93
2017-08-14T21:07:05.586Z,5.10
2017-08-14T21:09:32.196Z,5.60
2017-08-14T21:11:59.203Z,5.40
2017-08-14T21:14:25.800Z,5.50
2017-08-14T21:16:52.395Z,4.90
2017-08-14T21:19:22.835Z,5.30
2017-08-14T21:21:53.331Z,4.77
2017-08-14T21:24:20.272Z,5.20
2017-08-14T21:26:54.597Z,5.00
2017-08-14T21:29:22.099Z,5.17
2017-08-14T21:31:48.744Z,4.97
2017-08-14T21:34:15.675Z,5.20
2017-08-14T21:36:42.260Z,6.17
2017-08-14T21:39:08.846Z,5.30
2017-08-14T21:41:35.912Z,5.60
2017-08-14T21:44:02.559Z,5.07
2017-08-14T21:46:29.164Z,5.20
2017-08-14T21:48:55.931Z,5.30
2017-08-14T21:51:22.539Z,5.20
2017-08-14T21:53:49.126Z,5.80
2017-08-14T21:56:15.886Z,5.70
2017-08-14T21:58:42.472Z,5.73
2017-08-14T22:01:09.105Z,5.50
2017-08-14T22:03:35.880Z,5.50
2017-08-14T22:06:02.563Z,5.33
2017-08-14T22:08:29.166Z,5.97
2017-08-14T22:10:55.786Z,5.40
2017-08-14T22:13:22.371Z,5.63
2017-08-14T22:15:48.975Z,5.40
2017-08-14T22:18:15.717Z,5.33
2017-08-14T22:20:42.314Z,5.57
2017-08-14T22:23:08.919Z,5.20
2017-08-14T22:25:35.597Z,5.53
2017-08-14T22:28:02.344Z,5.30
2017-08-14T22:30:28.951Z,5.73
2017-08-14T22:32:55.600Z,5.83
2017-08-14T22:35:22.195Z,5.37
2017-08-14T22:37:48.787Z,5.50
2017-08-14T22:40:15.479Z,5.80
2017-08-14T22:42:49.427Z,5.50
2017-08-14T22:45:19.277Z,5.67
2017-08-14T22:47:45.872Z,5.63
2017-08-14T22:50:12.463Z,5.60
2017-08-14T22:52:39.104Z,5.37
2017-08-14T22:55:05.708Z,5.43
2017-08-14T22:57:32.363Z,5.57
2017-08-14T22:59:59.163Z,5.50
2017-08-14T23:02:25.793Z,5.60
2017-08-14T23:04:52.391Z,5.97
2017-08-14T23:07:19.183Z,5.73
2017-08-14T23:09:45.812Z,5.40
2017-08-14T23:12:12.398Z,5.80
2017-08-14T23:14:39.127Z,5.47
2017-08-14T23:17:05.755Z,5.83
2017-08-14T23:19:32.459Z,5.50
2017-08-14T23:21:59.223Z,5.30
2017-08-14T23:24:25.823Z,5.40
2017-08-14T23:26:52.411Z,4.80
2017-08-14T23:29:19.389Z,5.83
2017-08-14T23:31:45.977Z,5.43
2017-08-14T23:34:12.567Z,5.60
2017-08-14T23:36:39.316Z,5.70
2017-08-14T23:39:05.918Z,5.90
2017-08-14T23:41:32.529Z,5.60
2017-08-14T23:43:59.187Z,5.20
2017-08-14T23:46:25.771Z,5.73
2017-08-14T23:48:52.378Z,5.60
2017-08-14T23:51:19.109Z,5.23
2017-08-14T23:53:45.692Z,5.10
2017-08-14T23:56:12.331Z,5.53
2017-08-14T23:58:38.984Z,5.80
